createdAt,value
2023-05-12T00:00:19.981Z,12.71
2023-05-12T00:01:19.737Z,12.72
2023-05-12T00:02:19.701Z,12.70
2023-05-12T00:03:19.822Z,12.70
2023-05-12T00:04:19.746Z,12.71
2023-05-12T00:05:19.700Z,12.71
2023-05-12T00:06:19.659Z,12.65
2023-05-12T00:07:19.659Z,12.67
2023-05-12T00:08:19.627Z,12.67
2023-05-12T00:09:19.641Z,12.68
2023-05-12T00:10:19.877Z,12.68
2023-05-12T00:11:19.580Z,12.70
2023-05-12T00:12:19.589Z,12.68
2023-05-12T00:13:40.616Z,12.67
2023-05-12T00:14:19.632Z,12.64
2023-05-12T00:15:19.557Z,12.65
2023-05-12T00:16:19.549Z,12.65
2023-05-12T00:17:19.574Z,12.65
2023-05-12T00:18:19.536Z,12.62
2023-05-12T00:28:55.053Z,-29.49
2023-05-12T00:29:34.039Z,12.60
2023-05-12T00:30:34.023Z,12.60
2023-05-12T00:31:34.096Z,12.60
2023-05-12T00:32:34.096Z,12.59
2023-05-12T00:33:34.021Z,12.59
2023-05-12T00:34:33.980Z,12.56
2023-05-12T00:35:33.985Z,12.54
2023-05-12T00:36:33.969Z,12.52
2023-05-12T00:37:33.950Z,12.50
2023-05-12T00:38:33.961Z,12.53
2023-05-12T00:39:33.914Z,12.50
2023-05-12T00:40:33.885Z,12.59
2023-05-12T00:41:33.893Z,12.59
2023-05-12T00:42:33.909Z,12.59
2023-05-12T00:43:33.848Z,12.62
2023-05-12T00:44:33.840Z,12.60
2023-05-12T00:45:33.876Z,12.62
2023-05-12T00:46:33.825Z,12.59
2023-05-12T00:47:33.831Z,12.57
2023-05-12T00:48:33.791Z,12.57
2023-05-12T00:49:33.788Z,12.57
2023-05-12T00:50:33.782Z,12.57
2023-05-12T00:51:33.762Z,12.54
2023-05-12T00:52:33.743Z,12.57
2023-05-12T00:53:47.841Z,12.54
2023-05-12T00:54:34.707Z,12.56
2023-05-12T00:55:33.730Z,12.56
2023-05-12T00:56:33.731Z,12.57
2023-05-12T00:57:33.727Z,12.54
2023-05-12T00:58:33.661Z,12.53
2023-05-12T00:59:33.653Z,12.54
2023-05-12T01:00:33.665Z,12.52
2023-05-12T01:01:33.770Z,12.52
2023-05-12T01:02:33.680Z,12.52
2023-05-12T01:03:33.791Z,12.47
2023-05-12T01:04:33.578Z,12.46
2023-05-12T01:05:33.602Z,12.46
2023-05-12T01:06:33.563Z,12.47
2023-05-12T01:07:33.592Z,12.49
2023-05-12T01:08:33.546Z,12.47
2023-05-12T01:09:33.533Z,12.47
2023-05-12T01:10:33.524Z,12.45
2023-05-12T01:11:33.492Z,12.42
2023-05-12T01:12:33.494Z,12.42
2023-05-12T01:13:33.462Z,12.45
2023-05-12T01:14:33.477Z,12.46
2023-05-12T01:15:33.452Z,12.45
2023-05-12T01:16:33.452Z,12.45
2023-05-12T01:17:33.498Z,12.41
2023-05-12T01:18:33.423Z,12.41
2023-05-12T01:19:33.397Z,12.42
2023-05-12T01:20:33.622Z,12.41
2023-05-12T01:21:33.368Z,12.41
2023-05-12T01:22:33.338Z,12.37
2023-05-12T01:23:33.371Z,12.37
2023-05-12T01:24:33.363Z,12.35
2023-05-12T01:25:33.288Z,12.34
2023-05-12T01:26:33.289Z,12.34
2023-05-12T01:27:33.281Z,12.35
2023-05-12T01:28:33.274Z,12.37
2023-05-12T01:29:33.254Z,12.37
2023-05-12T01:30:33.230Z,12.37
2023-05-12T01:31:33.308Z,12.39
2023-05-12T01:33:29.721Z,12.37
2023-05-12T01:33:34.441Z,12.37
2023-05-12T01:34:34.413Z,12.32
2023-05-12T01:35:34.432Z,12.31
2023-05-12T01:36:34.396Z,12.29
2023-05-12T01:37:34.413Z,12.29
2023-05-12T01:38:34.428Z,12.29
2023-05-12T01:39:34.416Z,12.29
2023-05-12T01:40:34.390Z,12.27
2023-05-12T01:41:34.353Z,12.24
2023-05-12T01:42:34.338Z,12.23
2023-05-12T01:43:34.289Z,12.24
2023-05-12T01:44:34.302Z,12.29
2023-05-12T01:45:34.272Z,12.32
2023-05-12T01:46:34.371Z,12.34
2023-05-12T01:47:34.338Z,12.38
2023-05-12T01:48:34.289Z,12.41
2023-05-12T01:49:34.225Z,12.41
2023-05-12T01:50:34.213Z,12.41
2023-05-12T01:51:34.210Z,12.41
2023-05-12T01:52:34.200Z,12.42
2023-05-12T01:53:34.168Z,12.42
2023-05-12T01:54:34.152Z,12.45
2023-05-12T01:55:34.132Z,12.42
2023-05-12T01:56:34.126Z,12.45
2023-05-12T01:57:34.130Z,12.42
2023-05-12T01:58:34.225Z,12.41
2023-05-12T01:59:34.084Z,12.39
2023-05-12T02:00:34.066Z,12.41
2023-05-12T02:01:34.081Z,12.41
2023-05-12T02:02:34.128Z,12.38
2023-05-12T02:03:34.116Z,12.37
2023-05-12T02:04:34.019Z,12.32
2023-05-12T02:05:34.013Z,12.31
2023-05-12T02:06:34.009Z,12.27
2023-05-12T02:07:33.986Z,12.28
2023-05-12T02:08:33.969Z,12.24
2023-05-12T02:09:33.939Z,12.23
2023-05-12T02:10:33.956Z,12.21
2023-05-12T02:11:33.966Z,12.20
2023-05-12T02:12:33.940Z,12.23
2023-05-12T02:36:55.969Z,-29.49
2023-05-12T02:37:55.900Z,12.12
2023-05-12T02:38:55.939Z,12.07
2023-05-12T02:39:55.883Z,12.10
2023-05-12T02:40:55.890Z,12.09
2023-05-12T02:41:55.860Z,12.07
2023-05-12T02:42:55.884Z,12.04
2023-05-12T02:43:55.866Z,12.01
2023-05-12T02:44:55.840Z,11.98
2023-05-12T02:45:55.888Z,11.98
2023-05-12T02:46:55.821Z,11.95
2023-05-12T02:47:55.855Z,11.98
2023-05-12T02:48:55.796Z,11.95
2023-05-12T02:49:55.760Z,11.94
2023-05-12T02:50:55.743Z,11.88
2023-05-12T02:51:55.734Z,11.88
2023-05-12T02:52:55.723Z,11.86
2023-05-12T02:53:55.723Z,11.80
2023-05-12T02:54:55.721Z,11.82
2023-05-12T02:55:55.679Z,11.80
2023-05-12T02:56:55.700Z,11.80
2023-05-12T02:57:55.659Z,11.82
2023-05-12T02:58:55.640Z,11.79
2023-05-12T02:59:55.641Z,11.75
2023-05-12T03:01:06.706Z,11.73
2023-05-12T03:01:56.735Z,11.70
2023-05-12T03:02:55.723Z,11.72
2023-05-12T03:03:55.661Z,11.70
2023-05-12T03:04:55.585Z,11.69
2023-05-12T03:05:55.548Z,11.64
2023-05-12T03:06:55.563Z,11.55
2023-05-12T03:07:55.511Z,11.57
2023-05-12T03:08:55.509Z,11.54
2023-05-12T03:09:55.515Z,11.55
2023-05-12T03:10:55.517Z,11.55
2023-05-12T03:11:55.484Z,11.57
2023-05-12T03:12:55.460Z,11.54
2023-05-12T03:13:55.451Z,11.57
2023-05-12T03:14:55.449Z,11.51
2023-05-12T03:15:55.441Z,11.51
2023-05-12T03:16:55.475Z,11.51
2023-05-12T03:17:55.407Z,11.47
2023-05-12T03:18:55.432Z,11.44
2023-05-12T03:19:55.389Z,11.39
2023-05-12T03:20:55.389Z,11.39
2023-05-12T03:21:55.364Z,11.39
2023-05-12T03:22:55.324Z,11.39
2023-05-12T03:23:55.321Z,11.39
2023-05-12T03:24:55.310Z,11.37
2023-05-12T03:25:55.274Z,11.36
2023-05-12T03:26:55.281Z,11.29
2023-05-12T03:27:55.254Z,11.29
2023-05-12T03:28:55.246Z,11.32
2023-05-12T03:29:55.254Z,11.33
2023-05-12T03:30:55.246Z,11.32
2023-05-12T03:31:55.206Z,11.32
2023-05-12T03:32:55.257Z,11.33
2023-05-12T03:34:03.883Z,11.36
2023-05-12T03:35:04.080Z,11.37
2023-05-12T03:35:55.147Z,11.37
2023-05-12T03:36:55.134Z,11.37
2023-05-12T03:37:55.123Z,11.36
2023-05-12T03:38:55.145Z,11.33
2023-05-12T03:39:55.093Z,11.33
2023-05-12T03:40:55.084Z,11.28
2023-05-12T03:41:55.083Z,11.28
2023-05-12T03:42:55.053Z,11.25
2023-05-12T03:43:55.067Z,11.21
2023-05-12T03:44:55.031Z,11.17
2023-05-12T03:45:55.046Z,11.15
2023-05-12T03:46:55.137Z,11.15
2023-05-12T03:47:55.048Z,11.15
2023-05-12T03:48:55.007Z,11.14
2023-05-12T03:49:54.982Z,11.15
2023-05-12T03:50:54.963Z,11.22
2023-05-12T03:51:54.965Z,11.24
2023-05-12T03:52:54.930Z,11.29
2023-05-12T03:53:54.917Z,11.29
2023-05-12T03:54:54.906Z,11.29
2023-05-12T03:55:54.944Z,11.32
2023-05-12T03:56:54.864Z,11.33
2023-05-12T03:57:54.875Z,11.35
2023-05-12T03:58:54.841Z,11.33
2023-05-12T03:59:54.839Z,11.33
2023-05-12T04:00:54.822Z,11.35
2023-05-12T04:01:54.943Z,11.37
2023-05-12T04:02:54.949Z,11.37
2023-05-12T04:03:54.859Z,11.40
2023-05-12T04:04:54.782Z,11.40
2023-05-12T04:05:54.756Z,11.40
2023-05-12T04:06:54.761Z,11.40
2023-05-12T04:07:54.742Z,11.42
2023-05-12T04:08:54.704Z,11.42
2023-05-12T04:09:54.708Z,11.44
2023-05-12T04:10:54.689Z,11.44
2023-05-12T04:11:54.686Z,11.44
2023-05-12T04:12:54.646Z,11.46
2023-05-12T04:13:54.646Z,11.47
2023-05-12T04:14:54.706Z,11.47
2023-05-12T04:15:54.626Z,11.49
2023-05-12T04:16:54.629Z,11.49
2023-05-12T04:17:54.627Z,11.49
2023-05-12T04:18:54.629Z,11.49
2023-05-12T04:19:54.583Z,11.49
2023-05-12T04:20:54.552Z,11.52
2023-05-12T04:21:54.544Z,11.54
2023-05-12T04:22:54.535Z,11.54
2023-05-12T04:23:54.519Z,11.55
2023-05-12T04:24:54.500Z,11.57
2023-05-12T04:25:54.502Z,11.61
2023-05-12T04:26:54.488Z,11.62
2023-05-12T04:27:54.497Z,11.64
2023-05-12T04:28:54.446Z,11.65
2023-05-12T04:29:54.451Z,11.67
2023-05-12T04:30:54.448Z,11.67
2023-05-12T04:31:54.452Z,11.70
2023-05-12T04:32:54.408Z,11.72
2023-05-12T04:33:54.393Z,11.73
2023-05-12T04:34:54.392Z,11.75
2023-05-12T04:35:54.368Z,11.75
2023-05-12T04:36:54.388Z,11.73
2023-05-12T04:37:54.327Z,11.78
2023-05-12T04:38:54.307Z,11.76
2023-05-12T04:39:54.339Z,11.75
2023-05-12T04:40:54.294Z,11.76
2023-05-12T04:41:54.278Z,11.78
2023-05-12T04:42:54.281Z,11.80
2023-05-12T04:44:54.276Z,11.80
2023-05-12T04:45:54.359Z,11.83
2023-05-12T04:46:54.243Z,11.83
2023-05-12T04:47:54.225Z,11.86
2023-05-12T04:49:02.879Z,11.86
2023-05-12T04:50:01.713Z,11.85
2023-05-12T04:50:54.162Z,11.82
2023-05-12T04:51:54.158Z,11.85
2023-05-12T04:52:54.136Z,11.83
2023-05-12T04:53:54.148Z,11.88
2023-05-12T04:54:54.130Z,11.88
2023-05-12T04:55:54.133Z,11.86
2023-05-12T04:56:54.214Z,11.95
2023-05-12T04:57:54.233Z,11.96
2023-05-12T04:58:54.101Z,11.96
2023-05-12T04:59:54.078Z,11.98
2023-05-12T05:00:54.163Z,11.96
2023-05-12T05:01:54.077Z,11.96
2023-05-12T05:02:54.105Z,11.98
2023-05-12T05:03:54.078Z,12.02
2023-05-12T05:04:53.995Z,12.02
2023-05-12T05:05:53.973Z,12.07
2023-05-12T05:06:53.972Z,12.10
2023-05-12T05:07:54.011Z,12.12
2023-05-12T05:08:53.933Z,12.10
2023-05-12T05:09:53.917Z,12.12
2023-05-12T05:10:53.913Z,12.14
2023-05-12T05:11:53.943Z,12.16
2023-05-12T05:12:53.901Z,12.21
2023-05-12T05:13:53.878Z,12.23
2023-05-12T05:14:53.877Z,12.27
2023-05-12T05:15:53.894Z,12.29
2023-05-12T05:16:53.839Z,12.31
2023-05-12T05:17:53.849Z,12.32
2023-05-12T05:18:53.862Z,12.29
2023-05-12T05:19:58.426Z,12.32
2023-05-12T05:20:58.619Z,12.35
2023-05-12T05:21:53.793Z,12.38
2023-05-12T05:22:53.757Z,12.38
2023-05-12T05:23:53.746Z,12.41
2023-05-12T05:24:53.756Z,12.41
2023-05-12T05:25:53.743Z,12.41
2023-05-12T05:26:53.724Z,12.45
2023-05-12T05:27:53.693Z,12.50
2023-05-12T05:28:53.685Z,12.53
2023-05-12T05:29:53.718Z,12.59
2023-05-12T05:30:53.704Z,12.57
2023-05-12T05:31:53.661Z,12.64
2023-05-12T05:32:53.633Z,12.67
2023-05-12T05:33:53.642Z,12.67
2023-05-12T05:34:53.592Z,12.64
2023-05-12T05:35:53.627Z,12.67
2023-05-12T05:36:53.592Z,12.75
2023-05-12T05:37:53.601Z,12.75
2023-05-12T05:38:53.553Z,12.79
2023-05-12T05:39:53.540Z,12.82
2023-05-12T05:40:54.870Z,12.72
2023-05-12T05:41:53.529Z,12.74
2023-05-12T05:42:53.510Z,12.75
2023-05-12T05:43:53.499Z,12.75
2023-05-12T05:44:53.809Z,12.79
2023-05-12T05:45:53.483Z,12.83
2023-05-12T05:46:53.507Z,12.87
2023-05-12T05:47:53.561Z,12.95
2023-05-12T05:48:53.453Z,12.95
2023-05-12T05:49:53.432Z,12.92
2023-05-12T05:50:53.412Z,12.93
2023-05-12T05:51:53.379Z,12.96
2023-05-12T05:52:53.603Z,12.97
2023-05-12T05:53:53.395Z,12.96
2023-05-12T05:54:53.375Z,13.00
2023-05-12T05:55:53.358Z,13.03
2023-05-12T05:56:53.350Z,13.03
2023-05-12T05:57:53.324Z,13.08
2023-05-12T05:58:53.312Z,13.10
2023-05-12T05:59:53.297Z,13.12
2023-05-12T06:00:53.300Z,13.12
2023-05-12T06:01:53.394Z,13.15
2023-05-12T06:02:53.357Z,13.14
2023-05-12T06:03:53.436Z,13.15
2023-05-12T06:04:53.224Z,13.20
2023-05-12T06:05:53.257Z,13.20
2023-05-12T06:06:53.181Z,13.25
2023-05-12T06:07:53.183Z,13.23
2023-05-12T06:08:53.201Z,13.28
2023-05-12T06:09:53.154Z,13.28
2023-05-12T06:10:53.140Z,13.29
2023-05-12T06:11:53.204Z,13.30
2023-05-12T06:12:53.139Z,13.30
2023-05-12T06:13:53.125Z,13.29
2023-05-12T06:14:53.084Z,13.28
2023-05-12T06:15:53.072Z,13.23
2023-05-12T06:16:53.113Z,13.23
2023-05-12T06:17:53.157Z,13.26
2023-05-12T06:18:53.138Z,13.36
2023-05-12T06:19:53.148Z,13.38
2023-05-12T06:20:53.033Z,13.38
2023-05-12T06:21:53.078Z,13.44
2023-05-12T06:22:53.088Z,13.46
2023-05-12T06:23:52.970Z,13.55
2023-05-12T06:24:52.962Z,13.64
2023-05-12T06:25:52.953Z,13.70
2023-05-12T06:26:52.963Z,13.70
2023-05-12T06:27:52.951Z,13.79
2023-05-12T06:28:52.926Z,13.87
2023-05-12T06:29:52.907Z,13.88
2023-05-12T06:30:52.874Z,13.91
2023-05-12T06:31:52.997Z,13.88
2023-05-12T06:32:52.951Z,13.89
2023-05-12T06:33:52.877Z,13.96
2023-05-12T06:34:52.815Z,14.04
2023-05-12T06:35:52.907Z,14.06
2023-05-12T06:36:54.896Z,14.06
2023-05-12T06:37:52.796Z,14.07
2023-05-12T06:38:52.801Z,14.12
2023-05-12T06:39:52.785Z,14.15
2023-05-12T06:40:52.796Z,14.20
2023-05-12T06:41:52.762Z,14.17
2023-05-12T06:42:52.734Z,14.15
2023-05-12T06:43:52.704Z,14.14
2023-05-12T06:44:52.703Z,14.20
2023-05-12T06:45:52.754Z,14.14
2023-05-12T06:46:52.714Z,14.14
2023-05-12T06:47:52.755Z,14.18
2023-05-12T06:48:52.724Z,14.32
2023-05-12T06:49:52.653Z,14.39
2023-05-12T06:50:52.653Z,14.47
2023-05-12T06:51:52.622Z,14.57
2023-05-12T06:52:52.656Z,14.69
2023-05-12T06:53:52.581Z,14.70
2023-05-12T06:54:52.558Z,14.80
2023-05-12T06:55:52.589Z,14.81
2023-05-12T06:56:52.521Z,14.80
2023-05-12T06:57:52.505Z,14.84
2023-05-12T06:58:52.539Z,15.01
2023-05-12T06:59:52.546Z,15.01
2023-05-12T07:00:52.508Z,15.06
2023-05-12T07:02:00.087Z,15.17
2023-05-12T07:02:52.470Z,15.17
2023-05-12T07:03:52.526Z,15.19
2023-05-12T07:04:52.508Z,15.27
2023-05-12T07:05:52.449Z,15.34
2023-05-12T07:06:52.395Z,15.41
2023-05-12T07:07:52.419Z,15.51
2023-05-12T07:08:52.371Z,15.68
2023-05-12T07:09:52.383Z,15.75
2023-05-12T07:10:52.348Z,15.82
2023-05-12T07:11:52.319Z,15.80
2023-05-12T07:12:52.327Z,15.93
2023-05-12T07:13:52.319Z,15.93
2023-05-12T07:14:52.324Z,15.93
2023-05-12T07:15:52.316Z,16.01
2023-05-12T07:16:52.301Z,16.04
2023-05-12T07:17:52.269Z,16.09
2023-05-12T07:18:52.287Z,16.07
2023-05-12T07:19:52.232Z,16.02
2023-05-12T07:20:52.211Z,16.05
2023-05-12T07:21:52.192Z,16.04
2023-05-12T07:22:52.205Z,16.07
2023-05-12T07:23:52.196Z,16.20
2023-05-12T07:24:52.234Z,16.17
2023-05-12T07:25:52.126Z,16.17
2023-05-12T07:26:52.130Z,16.15
2023-05-12T07:27:52.118Z,16.25
2023-05-12T07:28:52.140Z,16.35
2023-05-12T07:29:52.090Z,16.39
2023-05-12T07:30:52.143Z,16.38
2023-05-12T07:31:52.210Z,16.49
2023-05-12T07:32:52.093Z,16.82
2023-05-12T07:33:52.050Z,16.97
2023-05-12T07:34:52.018Z,17.18
2023-05-12T07:35:52.014Z,17.37
2023-05-12T07:36:51.986Z,17.49
2023-05-12T07:37:51.999Z,17.58
2023-05-12T07:38:52.001Z,17.36
2023-05-12T07:39:51.947Z,17.36
2023-05-12T07:40:51.948Z,17.33
2023-05-12T07:41:51.934Z,17.33
2023-05-12T07:42:51.927Z,17.25
2023-05-12T07:43:51.904Z,17.40
2023-05-12T07:44:51.908Z,17.51
2023-05-12T07:45:51.869Z,17.72
2023-05-12T07:46:51.938Z,17.74
2023-05-12T07:47:51.873Z,17.75
2023-05-12T07:48:51.861Z,17.82
2023-05-12T07:49:51.879Z,17.81
2023-05-12T07:50:51.820Z,17.81
2023-05-12T07:51:51.810Z,17.92
2023-05-12T07:52:51.827Z,17.97
2023-05-12T07:53:51.778Z,18.02
2023-05-12T07:54:51.794Z,18.35
2023-05-12T07:55:51.754Z,18.57
2023-05-12T07:56:51.776Z,18.58
2023-05-12T07:57:51.728Z,18.48
2023-05-12T07:58:51.778Z,18.42
2023-05-12T07:59:51.687Z,18.48
2023-05-12T08:00:51.757Z,18.45
2023-05-12T08:01:51.740Z,18.47
2023-05-12T08:02:51.956Z,18.45
2023-05-12T08:03:51.766Z,18.44
2023-05-12T08:04:51.645Z,18.47
2023-05-12T08:05:51.632Z,18.41
2023-05-12T08:06:51.609Z,18.44
2023-05-12T08:07:51.585Z,18.37
2023-05-12T08:08:51.576Z,18.39
2023-05-12T08:09:51.571Z,18.32
2023-05-12T08:10:51.572Z,18.42
2023-05-12T08:11:51.888Z,18.60
2023-05-12T08:12:51.543Z,18.63
2023-05-12T08:13:51.597Z,18.69
2023-05-12T08:14:51.556Z,18.73
2023-05-12T08:15:51.480Z,18.67
2023-05-12T08:16:51.534Z,18.62
2023-05-12T08:17:51.512Z,18.57
2023-05-12T08:18:51.579Z,18.58
2023-05-12T08:20:00.134Z,18.65
2023-05-12T08:20:51.418Z,18.76
2023-05-12T08:21:51.393Z,18.81
2023-05-12T08:22:51.413Z,18.81
2023-05-12T08:23:51.385Z,18.84
2023-05-12T08:24:51.372Z,19.00
2023-05-12T08:25:58.866Z,19.21
2023-05-12T08:26:58.840Z,19.32
2023-05-12T08:27:58.887Z,19.46
2023-05-12T08:29:02.102Z,19.56
2023-05-12T08:29:51.274Z,19.59
2023-05-12T08:30:51.312Z,19.63
2023-05-12T08:31:51.336Z,19.71
2023-05-12T08:32:51.342Z,19.81
2023-05-12T08:34:02.692Z,20.02
2023-05-12T08:34:52.250Z,20.23
2023-05-12T08:35:51.213Z,20.43
2023-05-12T08:36:51.213Z,20.66
2023-05-12T08:37:51.202Z,20.99
2023-05-12T08:38:51.192Z,21.09
2023-05-12T08:39:51.157Z,21.01
2023-05-12T08:40:51.152Z,21.07
2023-05-12T08:41:51.160Z,21.27
2023-05-12T08:42:51.140Z,21.29
2023-05-12T08:43:51.119Z,21.42
2023-05-12T08:44:51.109Z,21.61
2023-05-12T08:45:51.101Z,21.82
2023-05-12T08:46:51.130Z,21.84
2023-05-12T08:47:51.098Z,21.90
2023-05-12T08:48:52.233Z,22.03
2023-05-12T08:49:52.493Z,22.03
2023-05-12T08:50:51.017Z,22.06
2023-05-12T08:51:57.847Z,21.96
2023-05-12T08:52:52.017Z,22.00
2023-05-12T08:53:50.987Z,22.12
2023-05-12T08:54:55.918Z,22.15
2023-05-12T08:57:09.167Z,22.20
2023-05-12T08:57:50.937Z,22.30
2023-05-12T08:58:50.915Z,22.28
2023-05-12T08:59:50.923Z,22.27
2023-05-12T09:00:50.948Z,22.15
2023-05-12T09:01:51.046Z,22.00
2023-05-12T09:02:54.528Z,21.88
2023-05-12T09:03:50.901Z,21.86
2023-05-12T09:04:50.950Z,21.92
2023-05-12T09:05:50.836Z,21.84
2023-05-12T09:06:51.066Z,21.94
2023-05-12T09:07:50.812Z,22.20
2023-05-12T09:08:50.801Z,22.46
2023-05-12T09:09:50.765Z,22.62
2023-05-12T09:10:50.779Z,22.54
2023-05-12T09:11:50.752Z,22.36
2023-05-12T09:12:50.732Z,22.27
2023-05-12T09:13:50.737Z,22.33
2023-05-12T09:14:50.712Z,22.28
2023-05-12T09:15:50.730Z,22.35
2023-05-12T09:16:50.754Z,22.17
2023-05-12T09:17:50.722Z,22.15
2023-05-12T09:18:50.714Z,22.17
2023-05-12T09:19:50.660Z,22.22
2023-05-12T09:20:50.647Z,22.31
2023-05-12T09:21:50.618Z,22.46
2023-05-12T09:22:50.611Z,22.61
2023-05-12T09:23:50.598Z,22.67
2023-05-12T09:24:50.601Z,22.67
2023-05-12T09:25:50.562Z,22.72
2023-05-12T09:26:50.551Z,22.72
2023-05-12T09:27:50.542Z,22.60
2023-05-12T09:28:50.529Z,22.73
2023-05-12T09:29:59.039Z,22.70
2023-05-12T09:30:51.504Z,22.65
2023-05-12T09:31:50.497Z,22.75
2023-05-12T09:32:50.570Z,22.88
2023-05-12T09:33:50.474Z,22.98
2023-05-12T09:34:50.464Z,23.07
2023-05-12T09:35:50.438Z,23.09
2023-05-12T09:36:50.461Z,23.17
2023-05-12T09:37:57.909Z,23.28
2023-05-12T09:38:50.412Z,23.33
2023-05-12T09:39:50.384Z,23.25
2023-05-12T09:40:50.371Z,23.22
2023-05-12T09:41:50.358Z,23.22
2023-05-12T09:42:50.347Z,23.12
2023-05-12T09:43:50.372Z,23.01
2023-05-12T09:44:50.322Z,23.07
2023-05-12T09:45:50.322Z,23.16
2023-05-12T09:46:50.294Z,23.38
2023-05-12T09:47:50.314Z,23.60
2023-05-12T09:48:50.282Z,23.79
2023-05-12T09:49:50.252Z,23.85
2023-05-12T09:50:50.245Z,23.76
2023-05-12T09:51:50.232Z,23.88
2023-05-12T09:52:50.275Z,24.00
2023-05-12T09:53:50.209Z,24.12
2023-05-12T09:54:50.252Z,24.12
2023-05-12T09:55:50.178Z,24.12
2023-05-12T09:56:50.170Z,24.09
2023-05-12T09:57:50.404Z,23.97
2023-05-12T09:58:50.143Z,23.85
2023-05-12T09:59:50.126Z,23.69
2023-05-12T10:01:12.640Z,23.57
2023-05-12T10:01:51.131Z,23.61
2023-05-12T10:02:50.143Z,23.63
2023-05-12T10:03:50.074Z,23.78
2023-05-12T10:04:50.121Z,23.98
2023-05-12T10:05:50.055Z,23.79
2023-05-12T10:06:50.049Z,23.61
2023-05-12T10:07:50.037Z,23.68
2023-05-12T10:08:50.016Z,23.80
2023-05-12T10:09:50.011Z,23.88
2023-05-12T10:10:49.995Z,23.90
2023-05-12T10:11:52.056Z,23.98
2023-05-12T10:12:49.964Z,24.09
2023-05-12T10:13:49.954Z,24.31
2023-05-12T10:14:49.954Z,24.43
2023-05-12T10:15:49.925Z,24.60
2023-05-12T10:16:49.999Z,24.69
2023-05-12T10:17:51.547Z,24.78
2023-05-12T10:18:49.962Z,24.83
2023-05-12T10:19:49.876Z,24.77
2023-05-12T10:20:49.892Z,24.50
2023-05-12T10:21:49.878Z,24.28
2023-05-12T10:22:49.852Z,24.13
2023-05-12T10:23:49.852Z,23.97
2023-05-12T10:24:49.813Z,23.69
2023-05-12T10:25:49.828Z,23.54
2023-05-12T10:26:49.803Z,23.50
2023-05-12T10:27:49.790Z,23.25
2023-05-12T10:28:49.775Z,23.22
2023-05-12T10:29:51.486Z,23.48
2023-05-12T10:30:49.752Z,23.75
2023-05-12T10:31:49.846Z,24.06
2023-05-12T10:32:49.778Z,24.24
2023-05-12T10:33:49.707Z,24.40
2023-05-12T10:34:49.709Z,24.62
2023-05-12T10:35:49.821Z,24.53
2023-05-12T10:36:49.696Z,24.20
2023-05-12T10:37:49.657Z,23.93
2023-05-12T10:38:49.723Z,24.08
2023-05-12T10:39:49.638Z,24.15
2023-05-12T10:40:49.615Z,24.32
2023-05-12T10:41:51.037Z,23.85
2023-05-12T10:42:49.584Z,23.48
2023-05-12T10:43:49.599Z,23.31
2023-05-12T10:44:49.582Z,23.36
2023-05-12T10:45:49.550Z,23.27
2023-05-12T10:46:49.660Z,23.28
2023-05-12T10:47:49.616Z,23.27
2023-05-12T10:48:49.584Z,23.53
2023-05-12T10:49:49.505Z,23.79
2023-05-12T10:50:49.487Z,24.09
2023-05-12T10:51:49.505Z,24.00
2023-05-12T10:52:49.513Z,23.83
2023-05-12T10:53:54.176Z,23.98
2023-05-12T10:54:51.118Z,24.21
2023-05-12T10:55:49.691Z,24.09
2023-05-12T10:56:56.670Z,23.85
2023-05-12T10:57:49.638Z,23.63
2023-05-12T10:58:49.735Z,23.53
2023-05-12T10:59:49.838Z,23.39
2023-05-12T11:00:49.714Z,23.17
2023-05-12T11:01:49.897Z,23.07
2023-05-12T11:02:50.649Z,22.97
2023-05-12T11:03:50.209Z,22.85
2023-05-12T11:04:50.234Z,22.72
2023-05-12T11:05:49.442Z,22.82
2023-05-12T11:06:50.177Z,23.23
2023-05-12T11:07:50.081Z,23.65
2023-05-12T11:08:50.668Z,23.98
2023-05-12T11:10:49.285Z,24.64
2023-05-12T11:11:50.102Z,25.03
2023-05-12T11:12:49.210Z,25.36
2023-05-12T11:13:49.191Z,25.73
2023-05-12T11:14:49.180Z,25.90
2023-05-12T11:15:49.179Z,25.77
2023-05-12T11:16:49.167Z,25.51
2023-05-12T11:17:49.242Z,24.98
2023-05-12T11:18:49.231Z,24.32
2023-05-12T11:19:49.118Z,24.13
2023-05-12T11:20:49.098Z,24.27
2023-05-12T11:21:49.123Z,24.28
2023-05-12T11:22:49.078Z,24.45
2023-05-12T11:23:49.062Z,24.64
2023-05-12T11:24:49.056Z,24.84
2023-05-12T11:25:49.114Z,24.60
2023-05-12T11:26:49.046Z,24.32
2023-05-12T11:27:49.994Z,24.35
2023-05-12T11:28:49.037Z,24.49
2023-05-12T11:29:49.000Z,24.60
2023-05-12T11:30:49.008Z,24.65
2023-05-12T11:31:48.992Z,24.77
2023-05-12T11:32:49.057Z,24.90
2023-05-12T11:33:55.949Z,25.08
2023-05-12T11:34:49.926Z,24.98
2023-05-12T11:35:48.932Z,24.87
2023-05-12T11:36:48.903Z,25.08
2023-05-12T11:37:48.895Z,25.35
2023-05-12T11:38:48.877Z,25.65
2023-05-12T11:39:48.880Z,25.87
2023-05-12T11:40:48.866Z,26.05
2023-05-12T11:41:50.154Z,26.10
2023-05-12T11:42:49.051Z,25.92
2023-05-12T11:43:48.816Z,26.10
2023-05-12T11:44:48.851Z,26.20
2023-05-12T11:45:48.920Z,26.06
2023-05-12T11:46:48.793Z,25.40
2023-05-12T11:47:48.814Z,24.83
2023-05-12T11:48:48.761Z,24.42
2023-05-12T11:49:48.785Z,24.22
2023-05-12T11:50:48.756Z,24.43
2023-05-12T11:51:48.710Z,24.25
2023-05-12T11:52:48.701Z,24.27
2023-05-12T11:53:48.704Z,24.32
2023-05-12T11:54:48.688Z,24.53
2023-05-12T11:55:48.658Z,24.81
2023-05-12T11:56:48.648Z,25.06
2023-05-12T11:57:48.633Z,25.28
2023-05-12T11:58:48.633Z,25.46
2023-05-12T11:59:48.607Z,25.70
2023-05-12T12:00:48.587Z,25.69
2023-05-12T12:01:48.582Z,25.70
2023-05-12T12:02:48.663Z,25.57
2023-05-12T12:03:49.634Z,25.39
2023-05-12T12:04:48.545Z,25.02
2023-05-12T12:05:48.524Z,24.43
2023-05-12T12:06:48.510Z,24.06
2023-05-12T12:07:48.515Z,23.83
2023-05-12T12:08:48.510Z,23.70
2023-05-12T12:09:48.480Z,23.63
2023-05-12T12:10:48.472Z,23.48
2023-05-12T12:11:48.458Z,23.33
2023-05-12T12:12:48.468Z,23.19
2023-05-12T12:13:48.427Z,23.17
2023-05-12T12:14:50.027Z,23.07
2023-05-12T12:15:48.478Z,22.98
2023-05-12T12:16:48.375Z,23.25
2023-05-12T12:17:48.434Z,23.55
2023-05-12T12:18:48.411Z,23.57
2023-05-12T12:19:48.363Z,23.63
2023-05-12T12:20:48.354Z,23.85
2023-05-12T12:21:48.348Z,24.24
2023-05-12T12:22:48.319Z,24.58
2023-05-12T12:23:51.257Z,24.83
2023-05-12T12:24:48.281Z,25.17
2023-05-12T12:25:48.278Z,25.50
2023-05-12T12:26:48.280Z,25.61
2023-05-12T12:27:48.279Z,25.50
2023-05-12T12:28:48.237Z,25.23
2023-05-12T12:29:48.234Z,25.03
2023-05-12T12:30:48.220Z,24.52
2023-05-12T12:31:48.280Z,24.10
2023-05-12T12:32:48.279Z,23.83
2023-05-12T12:33:48.181Z,23.78
2023-05-12T12:34:48.164Z,23.78
2023-05-12T12:35:48.173Z,24.03
2023-05-12T12:36:48.151Z,24.03
2023-05-12T12:37:48.261Z,24.09
2023-05-12T12:38:48.120Z,24.20
2023-05-12T12:39:48.119Z,24.32
2023-05-12T12:40:48.100Z,24.22
2023-05-12T12:41:48.196Z,24.25
2023-05-12T12:42:48.062Z,24.31
2023-05-12T12:43:48.056Z,24.57
2023-05-12T12:44:48.030Z,24.88
2023-05-12T12:45:48.034Z,25.17
2023-05-12T12:46:48.061Z,25.43
2023-05-12T12:47:48.077Z,25.82
2023-05-12T12:48:47.981Z,26.10
2023-05-12T12:49:47.979Z,26.01
2023-05-12T12:50:47.965Z,25.76
2023-05-12T12:51:47.947Z,25.55
2023-05-12T12:52:47.937Z,25.18
2023-05-12T12:53:47.909Z,24.83
2023-05-12T12:54:47.913Z,24.90
2023-05-12T12:55:47.893Z,25.08
2023-05-12T12:56:47.879Z,25.25
2023-05-12T12:57:47.867Z,25.45
2023-05-12T12:58:47.858Z,25.67
2023-05-12T12:59:47.867Z,25.82
2023-05-12T13:00:47.854Z,25.97
2023-05-12T13:01:47.851Z,26.02
2023-05-12T13:02:47.962Z,25.83
2023-05-12T13:03:47.796Z,25.36
2023-05-12T13:04:47.769Z,25.03
2023-05-12T13:05:47.801Z,25.05
2023-05-12T13:06:47.748Z,24.95
2023-05-12T13:07:47.754Z,24.98
2023-05-12T13:08:47.767Z,25.03
2023-05-12T13:09:47.732Z,24.77
2023-05-12T13:10:47.706Z,24.34
2023-05-12T13:11:47.706Z,23.97
2023-05-12T13:12:47.669Z,23.79
2023-05-12T13:13:47.686Z,23.83
2023-05-12T13:14:47.635Z,23.79
2023-05-12T13:15:47.635Z,23.78
2023-05-12T13:16:47.637Z,23.69
2023-05-12T13:17:47.623Z,23.57
2023-05-12T13:18:47.626Z,23.54
2023-05-12T13:19:47.572Z,23.57
2023-05-12T13:20:47.566Z,23.83
2023-05-12T13:21:47.545Z,23.84
2023-05-12T13:22:47.562Z,23.65
2023-05-12T13:23:47.556Z,23.75
2023-05-12T13:24:47.507Z,24.00
2023-05-12T13:25:47.611Z,24.18
2023-05-12T13:26:47.522Z,24.58
2023-05-12T13:27:47.499Z,24.91